createdAt,value
2023-01-15T00:02:16.929Z,3.55
2023-01-15T00:04:44.341Z,3.33
2023-01-15T00:07:11.392Z,3.35
2023-01-15T00:09:38.417Z,3.49
2023-01-15T00:12:05.465Z,3.50
2023-01-15T00:14:33.153Z,3.46
2023-01-15T00:17:00.410Z,3.41
2023-01-15T00:19:27.446Z,3.39
2023-01-15T00:21:54.573Z,3.38
2023-01-15T00:24:40.603Z,3.38
2023-01-15T00:27:28.813Z,3.37
2023-01-15T00:29:56.902Z,3.36
2023-01-15T00:32:27.316Z,3.36
2023-01-15T00:34:55.582Z,3.38
2023-01-15T00:37:23.973Z,3.41
2023-01-15T00:39:51.140Z,3.44
2023-01-15T00:42:18.054Z,3.44
2023-01-15T00:44:47.456Z,3.45
2023-01-15T00:47:15.344Z,3.30
2023-01-15T00:49:42.992Z,3.27
2023-01-15T00:52:10.447Z,3.43
2023-01-15T00:54:37.794Z,3.56
2023-01-15T00:57:04.953Z,3.63
2023-01-15T00:59:32.298Z,3.52
2023-01-15T01:02:00.029Z,3.65
2023-01-15T01:04:27.108Z,3.75
2023-01-15T01:06:55.693Z,3.76
2023-01-15T01:09:23.086Z,3.76
2023-01-15T01:11:50.308Z,3.74
2023-01-15T01:14:17.659Z,3.54
2023-01-15T01:16:44.804Z,3.47
2023-01-15T01:19:16.963Z,3.45
2023-01-15T01:21:45.246Z,3.44
2023-01-15T01:24:13.448Z,3.64
2023-01-15T01:26:40.971Z,3.75
2023-01-15T01:29:08.226Z,3.78
2023-01-15T01:31:35.498Z,3.79
2023-01-15T01:34:02.524Z,3.80
2023-01-15T01:36:34.791Z,3.78
2023-01-15T01:39:02.154Z,3.77
2023-01-15T01:41:29.402Z,3.74
2023-01-15T01:44:36.997Z,3.62
2023-01-15T01:47:09.239Z,3.41
2023-01-15T01:49:37.639Z,3.56
2023-01-15T01:52:08.697Z,3.59
2023-01-15T01:54:35.946Z,3.57
2023-01-15T01:57:02.846Z,3.45
2023-01-15T01:59:30.232Z,3.52
2023-01-15T02:01:57.552Z,3.45
2023-01-15T02:04:24.839Z,3.48
2023-01-15T02:06:52.099Z,3.55
2023-01-15T02:09:19.134Z,3.57
2023-01-15T02:11:46.301Z,3.56
2023-01-15T02:14:22.547Z,3.52
2023-01-15T02:16:58.557Z,3.53
2023-01-15T02:19:47.361Z,3.51
2023-01-15T02:22:37.882Z,3.50
2023-01-15T02:25:19.450Z,3.46
2023-01-15T02:28:04.323Z,3.51
2023-01-15T02:30:38.731Z,3.55
2023-01-15T02:33:12.855Z,3.60
2023-01-15T02:35:51.970Z,3.62
2023-01-15T02:38:21.289Z,3.62
2023-01-15T02:40:51.418Z,3.65
2023-01-15T02:43:19.668Z,3.64
2023-01-15T02:45:51.376Z,3.63
2023-01-15T02:48:19.107Z,3.62
2023-01-15T02:50:53.091Z,3.58
2023-01-15T02:53:23.327Z,3.54
2023-01-15T02:55:51.598Z,3.52
2023-01-15T02:58:25.613Z,3.27
2023-01-15T03:00:54.840Z,3.18
2023-01-15T03:03:53.696Z,3.16
2023-01-15T03:06:47.573Z,3.40
2023-01-15T03:09:15.649Z,3.44
2023-01-15T03:11:48.229Z,3.46
2023-01-15T03:14:21.507Z,3.47
2023-01-15T03:16:52.394Z,3.47
2023-01-15T03:19:26.048Z,3.44
2023-01-15T03:21:56.764Z,3.29
2023-01-15T03:24:30.852Z,3.41
2023-01-15T03:26:59.102Z,3.36
2023-01-15T03:29:28.714Z,3.41
2023-01-15T03:31:55.777Z,3.42
2023-01-15T03:34:22.661Z,3.46
2023-01-15T03:36:49.937Z,3.48
2023-01-15T03:39:18.904Z,3.28
2023-01-15T03:41:57.731Z,3.26
2023-01-15T03:44:32.762Z,3.40
2023-01-15T03:47:27.763Z,3.55
2023-01-15T03:50:03.962Z,3.55
2023-01-15T03:52:59.441Z,3.54
2023-01-15T03:56:01.607Z,3.52
2023-01-15T03:58:52.309Z,3.47
2023-01-15T04:01:26.960Z,3.47
2023-01-15T04:03:54.001Z,3.48
2023-01-15T04:06:26.075Z,3.46
2023-01-15T04:08:52.868Z,3.49
2023-01-15T04:11:24.131Z,3.49
2023-01-15T07:38:14.813Z,1.72
2023-01-15T07:40:41.973Z,2.85
2023-01-15T07:43:29.081Z,3.05
2023-01-15T07:46:14.561Z,3.18
2023-01-15T07:49:00.547Z,3.30
2023-01-15T07:51:27.594Z,3.41
2023-01-15T07:53:54.644Z,3.50
2023-01-15T07:56:21.996Z,3.59
2023-01-15T07:58:49.863Z,3.68
2023-01-15T08:01:16.924Z,3.77
2023-01-15T08:03:44.226Z,3.85
2023-01-15T08:06:11.318Z,3.94
2023-01-15T08:08:38.254Z,4.02
2023-01-15T08:11:24.551Z,4.09
2023-01-15T08:14:11.671Z,3.97
2023-01-15T08:16:38.742Z,4.02
2023-01-15T08:19:05.967Z,4.08
2023-01-15T08:21:33.929Z,4.17
2023-01-15T08:24:01.085Z,4.25
2023-01-15T08:26:28.134Z,4.50
2023-01-15T08:28:55.382Z,4.59
2023-01-15T08:31:22.490Z,4.53
2023-01-15T08:33:53.472Z,4.54
2023-01-15T08:36:20.626Z,4.54
2023-01-15T08:38:50.742Z,4.51
2023-01-15T08:41:17.887Z,4.33
2023-01-15T08:43:45.447Z,4.34
2023-01-15T08:46:12.943Z,4.56
2023-01-15T08:48:39.951Z,4.66
2023-01-15T08:51:08.641Z,4.74
2023-01-15T08:53:35.785Z,4.81
2023-01-15T08:56:03.001Z,4.87
2023-01-15T08:58:31.012Z,4.93
2023-01-15T09:01:09.279Z,4.99
2023-01-15T09:03:36.360Z,5.06
2023-01-15T09:06:05.454Z,5.10
2023-01-15T09:08:34.653Z,5.14
2023-01-15T09:11:03.058Z,5.17
2023-01-15T09:13:30.157Z,5.20
2023-01-15T09:16:02.465Z,5.22
2023-01-15T09:18:29.663Z,5.22
2023-01-15T09:20:57.586Z,5.19
2023-01-15T09:23:24.900Z,5.15
2023-01-15T09:25:59.478Z,4.94
2023-01-15T09:28:27.923Z,4.80
2023-01-15T09:30:55.191Z,4.74
2023-01-15T09:33:22.841Z,4.70
2023-01-15T09:35:49.883Z,4.85
2023-01-15T09:38:18.982Z,4.86
2023-01-15T09:40:52.586Z,4.65
2023-01-15T09:43:36.207Z,4.56
2023-01-15T09:46:13.239Z,4.54
2023-01-15T09:49:12.700Z,4.74
2023-01-15T09:51:51.831Z,4.78
2023-01-15T09:54:31.986Z,4.79
2023-01-15T09:56:59.182Z,4.80
2023-01-15T09:59:32.363Z,4.80
2023-01-15T10:02:01.423Z,4.78
2023-01-15T10:04:34.164Z,4.72
2023-01-15T10:07:17.772Z,4.86
2023-01-15T10:09:44.689Z,4.91
2023-01-15T10:12:36.204Z,4.87
2023-01-15T10:15:20.769Z,4.95
2023-01-15T10:17:48.790Z,4.99
2023-01-15T10:20:49.983Z,5.03
2023-01-15T10:23:34.216Z,5.01
2023-01-15T10:26:16.909Z,5.00
2023-01-15T10:29:02.863Z,4.96
2023-01-15T10:31:45.029Z,4.94
2023-01-15T10:34:28.569Z,4.93
2023-01-15T10:36:57.546Z,4.91
2023-01-15T10:39:24.615Z,4.90
2023-01-15T10:42:09.960Z,4.90
2023-01-15T10:44:43.276Z,4.93
2023-01-15T10:47:15.450Z,4.96
2023-01-15T10:49:42.626Z,4.99
2023-01-15T10:52:22.946Z,5.02
2023-01-15T10:54:53.695Z,5.04
2023-01-15T12:41:55.066Z,2.60
2023-01-15T12:45:02.667Z,3.77
2023-01-15T14:58:04.114Z,2.84
2023-01-15T15:00:36.490Z,3.98
2023-01-15T15:03:05.285Z,4.16
2023-01-15T15:05:32.216Z,4.27
2023-01-15T15:07:59.675Z,4.37
2023-01-15T15:10:34.605Z,4.47
2023-01-15T15:13:08.512Z,4.56
2023-01-15T15:15:41.499Z,4.65
2023-01-15T15:18:11.837Z,4.75
2023-01-15T15:20:42.044Z,4.85
2023-01-15T15:23:15.541Z,4.94
2023-01-15T15:25:54.262Z,5.04
2023-01-15T15:28:21.412Z,5.13
2023-01-15T15:30:48.602Z,5.20
2023-01-15T15:33:20.726Z,5.27
2023-01-15T15:35:50.322Z,5.33
2023-01-15T15:38:18.716Z,5.40
2023-01-15T15:40:50.841Z,5.45
2023-01-15T15:44:03.903Z,5.51
2023-01-15T15:46:50.917Z,5.57
2023-01-15T15:49:19.623Z,5.62
2023-01-15T15:51:48.307Z,5.66
2023-01-15T15:54:27.228Z,5.71
2023-01-15T15:57:12.185Z,5.74
2023-01-15T15:59:44.654Z,5.78
2023-01-15T16:02:19.082Z,5.81
2023-01-15T16:04:50.839Z,5.84
2023-01-15T16:07:25.366Z,5.87
2023-01-15T16:10:20.087Z,5.90
2023-01-15T16:12:52.021Z,5.93
2023-01-15T16:15:21.208Z,5.96
2023-01-15T16:17:48.254Z,5.99
2023-01-15T16:20:17.163Z,6.02
2023-01-15T16:22:55.050Z,6.05
2023-01-15T16:25:45.040Z,6.07
2023-01-15T16:28:26.218Z,6.09
2023-01-15T16:30:57.180Z,6.10
2023-01-15T16:33:24.504Z,6.12
2023-01-15T16:35:56.878Z,6.14
2023-01-15T16:38:24.001Z,6.16
2023-01-15T16:40:51.170Z,6.17
2023-01-15T16:43:21.707Z,6.18
2023-01-15T16:46:01.295Z,6.21
2023-01-15T16:48:41.398Z,6.22
2023-01-15T16:51:27.076Z,6.24
2023-01-15T16:53:54.238Z,6.26
2023-01-15T16:56:27.373Z,6.27
2023-01-15T16:58:54.677Z,6.29
2023-01-15T17:01:41.288Z,6.30
2023-01-15T17:04:26.985Z,6.30
2023-01-15T17:07:20.340Z,6.31
2023-01-15T17:09:49.322Z,6.33
2023-01-15T17:12:29.671Z,6.35
2023-01-15T17:15:15.669Z,6.35
2023-01-15T17:17:52.958Z,6.37
2023-01-15T17:20:23.394Z,6.38
2023-01-15T17:22:50.319Z,6.40
2023-01-15T17:25:20.266Z,6.41
2023-01-15T17:27:47.319Z,6.42
2023-01-15T17:30:15.353Z,6.42
2023-01-15T17:32:42.550Z,6.44
2023-01-15T17:35:15.998Z,6.45
2023-01-15T17:37:42.946Z,6.47
2023-01-15T17:40:10.922Z,6.47
2023-01-15T17:42:38.469Z,6.49
2023-01-15T17:45:06.339Z,6.50
2023-01-15T17:47:34.530Z,6.52
2023-01-15T17:50:01.789Z,6.53
2023-01-15T17:52:29.015Z,6.52
2023-01-15T17:55:14.900Z,6.54
2023-01-15T17:58:00.481Z,6.56
2023-01-15T18:00:47.815Z,6.58
2023-01-15T18:03:36.867Z,6.59
2023-01-15T18:06:05.045Z,6.61
2023-01-15T18:08:33.274Z,6.62
2023-01-15T18:11:02.440Z,6.63
2023-01-15T18:13:29.972Z,6.64
2023-01-15T18:15:57.084Z,6.65
2023-01-15T18:18:24.382Z,6.67
2023-01-15T18:20:51.725Z,6.68
2023-01-15T18:23:18.977Z,6.69
2023-01-15T18:25:47.054Z,6.70
2023-01-15T18:28:14.708Z,6.71
2023-01-15T18:30:42.063Z,6.72
2023-01-15T18:33:09.317Z,6.73
2023-01-15T18:35:36.280Z,6.75
2023-01-15T18:38:03.610Z,6.76
2023-01-15T18:40:31.068Z,6.77
2023-01-15T18:43:37.027Z,6.77
2023-01-15T18:46:24.624Z,6.77
2023-01-15T18:48:51.497Z,6.78
2023-01-15T18:51:18.758Z,6.78
2023-01-15T18:53:48.356Z,6.78
2023-01-15T18:56:35.376Z,6.77
2023-01-15T18:59:02.521Z,6.76
2023-01-15T19:01:30.419Z,6.77
2023-01-15T19:03:58.560Z,6.78
2023-01-15T19:06:25.610Z,6.79
2023-01-15T19:08:54.190Z,6.80
2023-01-15T19:11:21.749Z,6.81
2023-01-15T19:14:08.763Z,6.83
2023-01-15T22:30:12.582Z,5.17
2023-01-15T22:32:42.096Z,6.32
2023-01-15T22:35:10.257Z,6.51
2023-01-15T22:37:37.208Z,6.64
2023-01-15T22:40:11.236Z,6.75
2023-01-15T22:42:38.977Z,6.85
2023-01-15T22:45:06.539Z,6.95
2023-01-15T22:47:34.317Z,7.05
2023-01-15T22:50:01.451Z,7.13
2023-01-15T22:52:28.903Z,7.22
2023-01-15T22:54:59.840Z,7.32
2023-01-15T22:57:28.934Z,7.39
2023-01-15T22:59:56.700Z,7.47
2023-01-15T23:02:42.287Z,7.55
2023-01-15T23:05:10.270Z,7.62
2023-01-15T23:07:39.850Z,7.68
2023-01-15T23:10:08.344Z,7.74
2023-01-15T23:12:35.591Z,7.79
2023-01-15T23:15:02.432Z,7.84
2023-01-15T23:17:29.999Z,7.89
2023-01-15T23:19:57.034Z,7.93
2023-01-15T23:22:24.084Z,7.97
2023-01-15T23:24:51.335Z,8.03
2023-01-15T23:27:18.295Z,8.06
2023-01-15T23:29:47.690Z,8.10
2023-01-15T23:32:14.832Z,8.15
2023-01-15T23:34:41.876Z,8.18
2023-01-15T23:37:10.051Z,8.22
2023-01-15T23:39:37.201Z,8.25
2023-01-15T23:42:23.195Z,8.29
2023-01-15T23:45:08.987Z,8.31
2023-01-15T23:47:36.127Z,8.34
2023-01-15T23:50:05.094Z,8.37
2023-01-15T23:52:32.680Z,8.39
2023-01-15T23:54:59.836Z,8.41
2023-01-15T23:57:26.769Z,8.43
2023-01-15T23:59:53.824Z,8.45
